createdAt,value
2023-02-25T00:02:04.540Z,63.50
2023-02-25T00:05:07.292Z,63.36
2023-02-25T00:08:09.392Z,63.25
2023-02-25T00:11:11.964Z,63.33
2023-02-25T00:14:13.522Z,63.14
2023-02-25T00:17:15.220Z,63.17
2023-02-25T00:20:18.590Z,63.42
2023-02-25T00:23:20.667Z,63.41
2023-02-25T00:26:23.683Z,63.44
2023-02-25T00:29:25.504Z,63.49
2023-02-25T00:32:27.548Z,63.14
2023-02-25T00:35:29.495Z,63.31
2023-02-25T00:38:31.015Z,63.43
2023-02-25T00:41:32.851Z,63.37
2023-02-25T00:44:34.459Z,63.00
2023-02-25T00:47:36.339Z,63.51
2023-02-25T00:50:39.737Z,62.97
2023-02-25T00:53:41.859Z,63.10
2023-02-25T00:56:43.621Z,63.21
2023-02-25T00:59:45.187Z,63.46
2023-02-25T01:02:46.813Z,63.31
2023-02-25T01:05:51.748Z,63.30
2023-02-25T01:08:54.328Z,63.44
2023-02-25T01:11:55.887Z,63.21
2023-02-25T01:14:57.570Z,63.32
2023-02-25T01:17:59.089Z,63.28
2023-02-25T01:21:00.830Z,63.36
2023-02-25T01:24:10.022Z,63.22
2023-02-25T01:27:11.927Z,63.21
2023-02-25T01:30:13.789Z,63.34
2023-02-25T01:33:15.397Z,62.98
2023-02-25T01:36:17.362Z,63.40
2023-02-25T01:39:20.761Z,63.28
2023-02-25T01:42:22.379Z,62.94
2023-02-25T01:45:33.033Z,63.08
2023-02-25T01:48:40.340Z,62.80
2023-02-25T01:51:46.069Z,62.93
2023-02-25T01:54:53.621Z,63.13
2023-02-25T01:57:58.071Z,63.11
2023-02-25T02:01:00.510Z,62.89
2023-02-25T02:04:04.662Z,62.94
2023-02-25T02:07:07.134Z,62.90
2023-02-25T02:10:09.398Z,62.92
2023-02-25T02:13:11.006Z,62.83
2023-02-25T02:16:15.157Z,63.02
2023-02-25T02:19:22.736Z,62.77
2023-02-25T02:23:03.884Z,62.85
2023-02-25T02:26:46.071Z,63.03
2023-02-25T02:30:08.662Z,62.93
2023-02-25T02:33:22.334Z,62.80
2023-02-25T02:36:50.255Z,62.80
2023-02-25T02:39:54.473Z,62.81
2023-02-25T02:43:18.996Z,63.17
2023-02-25T02:46:25.407Z,62.81
2023-02-25T02:49:36.686Z,62.78
2023-02-25T02:52:43.463Z,62.78
2023-02-25T02:55:50.958Z,63.04
2023-02-25T02:59:05.862Z,62.79
2023-02-25T03:02:13.202Z,62.96
2023-02-25T03:05:17.268Z,62.92
2023-02-25T03:08:27.474Z,62.85
2023-02-25T03:11:29.229Z,62.94
2023-02-25T03:14:31.062Z,62.69
2023-02-25T03:17:42.328Z,62.74
2023-02-25T03:20:49.517Z,62.51
2023-02-25T03:23:51.877Z,62.63
2023-02-25T03:26:53.617Z,62.71
2023-02-25T03:30:06.358Z,62.78
2023-02-25T03:33:16.432Z,62.61
2023-02-25T03:37:06.030Z,62.52
2023-02-25T03:40:12.973Z,62.39
2023-02-25T03:43:21.492Z,62.59
2023-02-25T03:46:25.770Z,62.48
2023-02-25T03:49:34.765Z,62.75
2023-02-25T03:52:36.656Z,62.51
2023-02-25T03:55:38.257Z,62.71
2023-02-25T03:58:41.968Z,62.60
2023-02-25T04:01:46.743Z,62.70
2023-02-25T04:04:48.301Z,62.76
2023-02-25T04:07:50.059Z,62.66
2023-02-25T04:10:52.317Z,62.35
2023-02-25T04:13:54.625Z,62.45
2023-02-25T04:16:56.149Z,62.40
2023-02-25T04:19:57.830Z,62.36
2023-02-25T04:23:00.283Z,62.30
2023-02-25T04:26:02.156Z,62.69
2023-02-25T04:29:04.229Z,62.71
2023-02-25T04:32:06.050Z,62.69
2023-02-25T04:35:11.807Z,62.53
2023-02-25T04:38:14.192Z,62.32
2023-02-25T04:41:15.780Z,62.16
2023-02-25T04:44:17.379Z,62.37
2023-02-25T04:47:19.352Z,62.42
2023-02-25T04:50:21.275Z,62.36
2023-02-25T04:53:22.855Z,62.41
2023-02-25T04:56:24.755Z,62.48
2023-02-25T04:59:26.738Z,62.40
2023-02-25T05:02:28.484Z,62.40
2023-02-25T05:05:30.068Z,62.29
2023-02-25T05:08:32.174Z,62.43
2023-02-25T05:11:33.799Z,62.50
2023-02-25T05:14:37.273Z,62.45
2023-02-25T05:17:38.947Z,62.66
2023-02-25T05:20:42.979Z,62.27
2023-02-25T05:23:46.634Z,62.17
2023-02-25T05:26:48.212Z,62.65
2023-02-25T05:29:51.617Z,62.21
2023-02-25T05:32:53.425Z,62.50
2023-02-25T05:35:54.958Z,62.46
2023-02-25T05:39:02.966Z,62.39
2023-02-25T05:42:04.814Z,62.55
2023-02-25T05:45:09.829Z,62.37
2023-02-25T05:48:11.386Z,62.43
2023-02-25T05:51:23.397Z,62.23
2023-02-25T05:54:25.663Z,62.12
2023-02-25T05:57:27.174Z,62.47
2023-02-25T06:00:28.723Z,62.35
2023-02-25T06:03:30.615Z,62.19
2023-02-25T06:06:32.935Z,61.99
2023-02-25T06:09:37.541Z,62.40
2023-02-25T06:12:39.134Z,62.44
2023-02-25T06:15:42.354Z,62.25
2023-02-25T06:18:44.354Z,62.53
2023-02-25T06:21:45.908Z,62.37
2023-02-25T06:24:47.517Z,62.21
2023-02-25T06:27:49.158Z,62.33
2023-02-25T06:30:50.728Z,62.38
2023-02-25T06:33:55.079Z,62.40
2023-02-25T06:36:56.692Z,62.32
2023-02-25T06:39:58.451Z,62.49
2023-02-25T06:42:59.994Z,63.08
2023-02-25T06:46:05.906Z,63.55
2023-02-25T06:49:07.473Z,62.59
2023-02-25T06:52:09.001Z,62.17
2023-02-25T06:55:10.687Z,62.18
2023-02-25T06:58:14.180Z,61.70
2023-02-25T07:01:17.676Z,61.89
2023-02-25T07:04:20.064Z,61.93
2023-02-25T07:07:22.354Z,62.16
2023-02-25T07:10:24.258Z,62.14
2023-02-25T07:13:25.798Z,61.99
2023-02-25T07:16:29.957Z,62.35
2023-02-25T07:19:31.827Z,62.29
2023-02-25T07:22:33.420Z,62.56
2023-02-25T07:25:34.952Z,62.56
2023-02-25T07:28:37.625Z,62.37
2023-02-25T07:31:39.708Z,62.53
2023-02-25T07:34:41.506Z,62.45
2023-02-25T07:37:43.087Z,62.24
2023-02-25T07:40:44.647Z,62.09
2023-02-25T07:43:46.502Z,62.65
2023-02-25T07:46:48.002Z,62.21
2023-02-25T07:49:49.536Z,62.54
2023-02-25T07:52:51.590Z,62.38
2023-02-25T07:55:53.157Z,62.02
2023-02-25T07:58:54.742Z,62.00
2023-02-25T08:01:56.331Z,62.27
2023-02-25T08:04:57.895Z,62.23
2023-02-25T08:07:59.428Z,62.06
2023-02-25T08:11:08.298Z,62.19
2023-02-25T08:14:10.727Z,62.01
2023-02-25T08:17:13.220Z,61.91
2023-02-25T08:20:14.768Z,61.60
2023-02-25T08:23:16.328Z,61.93
2023-02-25T08:26:18.515Z,61.58
2023-02-25T08:29:20.091Z,61.67
2023-02-25T08:32:23.071Z,61.50
2023-02-25T08:35:25.677Z,61.66
2023-02-25T08:38:28.601Z,61.32
2023-02-25T08:41:30.497Z,61.46
2023-02-25T08:44:32.032Z,61.61
2023-02-25T08:47:33.686Z,61.57
2023-02-25T08:50:35.362Z,61.55
2023-02-25T08:53:39.111Z,61.03
2023-02-25T08:56:47.422Z,61.49
2023-02-25T08:59:49.059Z,61.25
2023-02-25T09:02:50.637Z,61.32
2023-02-25T09:05:53.534Z,61.03
2023-02-25T09:08:56.835Z,61.34
2023-02-25T09:11:58.439Z,60.95
2023-02-25T09:15:00.060Z,61.26
2023-02-25T09:18:01.610Z,61.05
2023-02-25T09:21:04.535Z,61.07
2023-02-25T09:24:07.782Z,60.77
2023-02-25T09:27:10.619Z,61.20
2023-02-25T09:30:13.012Z,61.04
2023-02-25T09:33:15.017Z,60.93
2023-02-25T09:36:19.041Z,60.79
2023-02-25T09:39:20.579Z,60.96
2023-02-25T09:42:24.964Z,61.33
2023-02-25T09:45:26.782Z,61.57
2023-02-25T09:48:34.046Z,61.96
2023-02-25T09:51:46.006Z,60.76
2023-02-25T09:54:52.795Z,60.52
2023-02-25T09:58:28.307Z,60.86
2023-02-25T10:01:39.385Z,60.93
2023-02-25T10:04:52.816Z,60.74
2023-02-25T10:08:23.509Z,60.55
2023-02-25T10:11:37.592Z,60.76
2023-02-25T10:14:42.135Z,60.26
2023-02-25T10:17:55.568Z,60.48
2023-02-25T10:21:16.091Z,60.40
2023-02-25T10:24:30.722Z,60.35
2023-02-25T10:27:46.597Z,60.31
2023-02-25T10:31:08.195Z,60.04
2023-02-25T10:34:32.799Z,60.10
2023-02-25T10:37:38.195Z,59.85
2023-02-25T10:40:40.929Z,60.04
2023-02-25T10:43:43.903Z,59.90
2023-02-25T10:46:57.965Z,59.96
2023-02-25T10:50:17.630Z,59.81
2023-02-25T10:53:19.181Z,59.57
2023-02-25T10:56:22.036Z,59.43
2023-02-25T10:59:31.709Z,59.57
2023-02-25T11:02:41.640Z,59.95
2023-02-25T11:05:44.944Z,59.63
2023-02-25T11:08:46.667Z,59.56
2023-02-25T11:11:58.942Z,59.39
2023-02-25T11:15:19.538Z,59.28
2023-02-25T11:18:31.392Z,59.33
2023-02-25T11:21:39.054Z,59.43
2023-02-25T11:24:42.903Z,59.40
2023-02-25T11:27:54.139Z,59.57
2023-02-25T11:31:06.138Z,59.73
2023-02-25T11:34:30.712Z,59.72
2023-02-25T11:37:46.447Z,59.48
2023-02-25T11:40:48.714Z,59.51
2023-02-25T11:43:50.588Z,59.48
2023-02-25T11:46:57.245Z,59.55
2023-02-25T11:50:10.228Z,59.19
2023-02-25T11:53:33.607Z,59.33
2023-02-25T11:56:48.643Z,59.45
2023-02-25T12:00:25.755Z,59.27
2023-02-25T12:03:48.312Z,59.28
2023-02-25T12:07:08.417Z,59.35
2023-02-25T12:10:25.221Z,59.32
2023-02-25T12:13:46.770Z,59.15
2023-02-25T12:17:28.851Z,59.25
2023-02-25T12:20:40.729Z,59.28
2023-02-25T12:24:06.821Z,59.16
2023-02-25T12:27:51.116Z,59.12
2023-02-25T12:31:23.812Z,58.71
2023-02-25T12:34:56.420Z,59.00
2023-02-25T12:38:19.316Z,59.24
2023-02-25T12:41:39.409Z,58.96
2023-02-25T12:45:10.013Z,58.93
2023-02-25T12:48:59.318Z,58.85
2023-02-25T12:52:06.773Z,58.61
2023-02-25T12:55:36.304Z,58.80
2023-02-25T12:58:46.570Z,58.81
2023-02-25T13:02:09.867Z,59.02
2023-02-25T13:05:48.985Z,58.80
2023-02-25T13:09:12.165Z,58.51
2023-02-25T13:12:25.900Z,58.61
2023-02-25T13:15:35.314Z,58.60
2023-02-25T13:18:58.326Z,58.62
2023-02-25T13:22:43.701Z,58.43
2023-02-25T13:26:18.953Z,58.40
2023-02-25T13:29:32.067Z,58.42
2023-02-25T13:33:04.412Z,58.42
2023-02-25T13:36:26.986Z,58.45
2023-02-25T13:39:54.314Z,58.40
2023-02-25T13:43:14.703Z,58.50
2023-02-25T13:46:22.273Z,58.34
2023-02-25T13:49:51.568Z,58.33
2023-02-25T13:53:02.041Z,58.26
2023-02-25T13:56:18.503Z,58.48
2023-02-25T13:59:54.263Z,58.13
2023-02-25T14:03:34.193Z,58.25
2023-02-25T14:07:00.307Z,58.11
2023-02-25T14:10:12.813Z,58.07
2023-02-25T14:13:42.436Z,58.14
2023-02-25T14:17:01.027Z,58.07
2023-02-25T14:20:02.802Z,58.06
2023-02-25T14:23:33.380Z,58.18
2023-02-25T14:26:47.045Z,58.17
2023-02-25T14:30:19.610Z,58.13
2023-02-25T14:33:32.919Z,58.02
2023-02-25T14:37:07.418Z,58.07
2023-02-25T14:40:21.105Z,57.82
2023-02-25T14:43:41.229Z,57.77
2023-02-25T14:46:48.070Z,57.84
2023-02-25T14:50:14.670Z,57.83
2023-02-25T14:53:29.686Z,57.74
2023-02-25T14:56:48.896Z,57.90
2023-02-25T15:00:15.258Z,57.79
2023-02-25T15:03:19.514Z,57.63
2023-02-25T15:06:44.761Z,57.87
2023-02-25T15:10:08.165Z,57.52
2023-02-25T15:13:48.522Z,57.75
2023-02-25T15:17:01.854Z,57.72
2023-02-25T15:20:42.194Z,57.83
2023-02-25T15:23:51.194Z,57.59
2023-02-25T15:26:53.925Z,57.46
2023-02-25T15:29:59.621Z,57.48
2023-02-25T15:33:32.044Z,57.47
2023-02-25T15:36:42.192Z,57.37
2023-02-25T15:39:43.669Z,57.39
2023-02-25T15:42:57.289Z,57.67
2023-02-25T15:46:07.916Z,57.37
2023-02-25T15:49:15.493Z,57.59
2023-02-25T15:52:52.829Z,57.72
2023-02-25T15:56:03.469Z,57.69
2023-02-25T15:59:04.995Z,57.57
2023-02-25T16:02:34.847Z,57.52
2023-02-25T16:05:37.973Z,57.30
2023-02-25T16:08:54.878Z,57.44
2023-02-25T16:12:07.253Z,57.23
2023-02-25T16:15:20.367Z,57.15
2023-02-25T16:18:45.369Z,57.38
2023-02-25T16:21:53.194Z,57.09
2023-02-25T16:24:57.104Z,57.26
2023-02-25T16:28:05.707Z,57.17
2023-02-25T16:31:42.153Z,57.37
2023-02-25T16:35:17.749Z,57.13
2023-02-25T16:38:35.243Z,57.35
2023-02-25T16:41:39.490Z,56.99
2023-02-25T16:44:44.762Z,56.82
2023-02-25T16:47:55.340Z,56.93
2023-02-25T16:50:57.084Z,57.09
2023-02-25T16:54:06.419Z,57.16
2023-02-25T16:57:20.183Z,57.52
2023-02-25T17:00:23.141Z,57.75
2023-02-25T17:03:33.018Z,57.33
2023-02-25T17:06:34.846Z,57.54
2023-02-25T17:09:42.338Z,57.60
2023-02-25T17:12:45.892Z,58.05
2023-02-25T17:15:47.673Z,58.03
2023-02-25T17:18:53.619Z,57.81
2023-02-25T17:21:58.731Z,57.73
2023-02-25T17:25:02.145Z,57.72
2023-02-25T17:28:04.994Z,57.82
2023-02-25T17:31:15.555Z,57.85
2023-02-25T17:34:28.879Z,57.98
2023-02-25T17:37:31.499Z,57.86
2023-02-25T17:40:33.316Z,57.91
2023-02-25T17:43:38.937Z,58.48
2023-02-25T17:46:44.554Z,58.22
2023-02-25T17:49:46.796Z,58.25
2023-02-25T17:52:49.317Z,58.40
2023-02-25T17:55:50.864Z,58.17
2023-02-25T17:59:01.383Z,58.48
2023-02-25T18:02:23.614Z,58.44
2023-02-25T18:05:26.030Z,58.38
2023-02-25T18:08:51.353Z,58.33
2023-02-25T18:11:55.086Z,58.20
2023-02-25T18:14:59.557Z,58.04
2023-02-25T18:18:04.226Z,58.17
2023-02-25T18:21:08.731Z,58.34
2023-02-25T18:24:26.537Z,58.33
2023-02-25T18:27:32.961Z,58.33
2023-02-25T18:30:34.599Z,58.32
2023-02-25T18:33:36.465Z,58.29
2023-02-25T18:36:38.387Z,58.36
2023-02-25T18:39:40.020Z,58.19
2023-02-25T18:42:41.519Z,57.98
2023-02-25T18:45:43.234Z,58.03
2023-02-25T18:48:44.793Z,58.17
2023-02-25T18:51:48.863Z,57.88
2023-02-25T18:54:50.479Z,58.00
2023-02-25T18:57:52.371Z,58.28
2023-02-25T19:00:57.066Z,58.22
2023-02-25T19:04:01.488Z,58.23
2023-02-25T19:07:10.842Z,58.16
2023-02-25T19:10:30.226Z,58.30
2023-02-25T19:13:38.467Z,58.19
2023-02-25T19:16:40.010Z,58.19
2023-02-25T19:19:46.587Z,58.23
2023-02-25T19:22:50.624Z,58.01
2023-02-25T19:25:59.456Z,57.93
2023-02-25T19:29:01.059Z,58.12
2023-02-25T19:32:02.737Z,58.12
2023-02-25T19:35:04.795Z,58.33
2023-02-25T19:38:08.532Z,58.18
2023-02-25T19:41:13.232Z,58.14
2023-02-25T19:44:14.757Z,58.34
2023-02-25T19:47:16.301Z,58.28
2023-02-25T19:50:20.241Z,58.11
2023-02-25T19:53:21.961Z,58.18
2023-02-25T19:56:23.769Z,58.13
2023-02-25T19:59:25.662Z,58.31
2023-02-25T20:02:27.242Z,58.39
2023-02-25T20:05:28.887Z,58.38
2023-02-25T20:08:30.452Z,58.50
2023-02-25T20:11:32.442Z,58.77
2023-02-25T20:14:34.394Z,58.61
2023-02-25T20:17:37.408Z,58.55
2023-02-25T20:20:42.262Z,58.54
2023-02-25T20:23:43.782Z,58.58
2023-02-25T20:26:45.356Z,58.58
2023-02-25T20:29:47.625Z,58.61
2023-02-25T20:32:49.250Z,58.42
2023-02-25T20:35:50.903Z,58.55
2023-02-25T20:39:12.732Z,58.64
2023-02-25T20:42:20.656Z,58.52
2023-02-25T20:45:22.512Z,58.40
2023-02-25T20:48:30.195Z,58.55
2023-02-25T20:51:32.509Z,58.30
2023-02-25T20:54:34.042Z,58.23
2023-02-25T20:57:35.766Z,58.20
2023-02-25T21:00:38.375Z,58.03
2023-02-25T21:03:39.902Z,58.24
2023-02-25T21:06:41.447Z,58.21
2023-02-25T21:09:43.054Z,58.21
2023-02-25T21:12:44.661Z,58.20
2023-02-25T21:15:46.218Z,58.30
2023-02-25T21:18:48.675Z,58.20
2023-02-25T21:21:50.865Z,58.15
2023-02-25T21:24:52.433Z,58.53
2023-02-25T21:27:53.996Z,58.25
2023-02-25T21:31:04.339Z,58.19
2023-02-25T21:34:06.381Z,58.09
2023-02-25T21:37:07.937Z,58.17
2023-02-25T21:40:10.391Z,58.27
2023-02-25T21:43:11.990Z,58.24
2023-02-25T21:46:16.345Z,58.20
2023-02-25T21:49:18.265Z,58.04
2023-02-25T21:52:19.872Z,58.15
2023-02-25T21:55:21.462Z,58.21
2023-02-25T21:58:23.942Z,58.11
2023-02-25T22:01:37.656Z,58.22
2023-02-25T22:04:39.344Z,58.20
2023-02-25T22:07:40.932Z,58.40
2023-02-25T22:10:42.544Z,58.21
2023-02-25T22:13:44.170Z,58.30
2023-02-25T22:16:45.752Z,58.20
2023-02-25T22:19:47.281Z,57.96
2023-02-25T22:22:49.107Z,57.87
2023-02-25T22:25:50.642Z,58.18
2023-02-25T22:29:03.719Z,58.42
2023-02-25T22:32:05.400Z,58.39
2023-02-25T22:35:07.808Z,58.26
2023-02-25T22:38:12.006Z,58.41
2023-02-25T22:41:18.490Z,58.40
2023-02-25T22:44:20.062Z,58.11
2023-02-25T22:47:21.684Z,58.15
2023-02-25T22:50:23.251Z,57.99
2023-02-25T22:53:24.855Z,57.97
2023-02-25T22:56:27.684Z,58.04
2023-02-25T22:59:29.345Z,57.97
2023-02-25T23:02:30.905Z,58.26
2023-02-25T23:05:32.666Z,57.81
2023-02-25T23:08:35.201Z,58.06
2023-02-25T23:11:36.836Z,57.89
2023-02-25T23:14:38.396Z,58.02
2023-02-25T23:17:39.940Z,57.91
2023-02-25T23:20:41.910Z,58.13
2023-02-25T23:23:43.870Z,57.86
2023-02-25T23:26:47.874Z,57.92
2023-02-25T23:29:49.566Z,58.04
2023-02-25T23:32:51.146Z,57.88
2023-02-25T23:35:52.699Z,57.95
2023-02-25T23:39:00.788Z,57.98
2023-02-25T23:42:02.589Z,58.03
2023-02-25T23:45:05.831Z,57.92
2023-02-25T23:48:07.885Z,58.23
2023-02-25T23:51:09.564Z,58.22
2023-02-25T23:54:14.873Z,58.02
2023-02-25T23:57:16.501Z,57.94
